Hlavní strana
METAR-TAF:

METAR-TAF

Letiště :

Vientiane, Laos

zeměpisná šířka: 17-57N, zeměpisná délka: 102-34E, výška: 171 m

Aktuální stav počasí

Zpráva byla vytvořena před 5 hodinami a 53 minutami, v 16:30 UTC
Severoseverovýchodní vítr 2 kt
Teplota 19°C
Vlhkost vzduchu 100%
Tlak 1019 hPa
Viditelnost: 4000 m
Skoro jasno ve výšce 5000 ft
kouřmo

METAR: VLVT 131630Z 02002KT 4000 BR FEW050 19/19 Q1019 NOSIG

Čas: 05:23 (22:23 UTC)

Předpověď počasí

Zpráva byla vytvořena před 5 hodinami a 23 minutami, v 17:00 UTC
Předpověď platná od 13 v 18 UTC do 14 v 18 UTC
Východoseverovýchodní vítr 4 kt
Viditelnost: 8000 m
Skoro jasno ve výšce 2000 ft
Polojasno ve výšce 5000 ft
Dočasný
od 13 v 18 UTC do 13 v 22 UTC
Viditelnost: 4000 m
Polojasno ve výšce 5000 ft
kouřmo

TAF: VLVT 131700Z 1318/1418 06004KT 8000 FEW020 SCT050 TEMPO 1318/1322 4000 BR SCT050

Stav a předpovědi počasí z více než 4 000 letišť (zprávy METAR a TAF).

Červené a žluté tečky na mapě představují dostupné meteorologické stanice.

Když kurzor umístíte na tečku, zobrazí se název stanice.

Pak kliknutím zobrazíte stav a předpověď počasí.

Chcete-li změnit mapu, kliknutím na zelené tlačítko se znaménkem +mapu přiblížíte, kliknutím na zelené tlačítko se znaménkem – mapu oddálíte a kliknutím na zelené šipky přejdete na sousední mapy.


METAR-TAF: